sensor_id;sensor_type;location;lat;lon;timestamp;pressure;altitude;pressure_sealevel;temperature;humidity
4590;BME280;2307;48.448;9.216;2023-06-10T00:01:29;95024.63;;;19.22;79.53
4590;BME280;2307;48.448;9.216;2023-06-10T00:03:55;95030.19;;;19.26;79.42
4590;BME280;2307;48.448;9.216;2023-06-10T00:06:22;95031.38;;;19.33;78.91
4590;BME280;2307;48.448;9.216;2023-06-10T00:08:50;95025.81;;;19.30;79.31
4590;BME280;2307;48.448;9.216;2023-06-10T00:11:17;95028.09;;;19.36;80.43
4590;BME280;2307;48.448;9.216;2023-06-10T00:13:43;95019.28;;;19.36;79.13
4590;BME280;2307;48.448;9.216;2023-06-10T00:16:10;95024.22;;;19.29;80.99
4590;BME280;2307;48.448;9.216;2023-06-10T00:18:36;95021.88;;;19.41;80.21
4590;BME280;2307;48.448;9.216;2023-06-10T00:21:03;95011.72;;;19.38;82.92
4590;BME280;2307;48.448;9.216;2023-06-10T00:23:31;95018.19;;;19.37;81.50
4590;BME280;2307;48.448;9.216;2023-06-10T00:26:04;95018.13;;;19.42;81.83
4590;BME280;2307;48.448;9.216;2023-06-10T00:28:30;95018.13;;;19.42;83.40
4590;BME280;2307;48.448;9.216;2023-06-10T00:30:56;95015.91;;;19.30;83.12
4590;BME280;2307;48.448;9.216;2023-06-10T00:33:23;95014.63;;;19.41;80.91
4590;BME280;2307;48.448;9.216;2023-06-10T00:35:49;95022.84;;;19.31;82.35
4590;BME280;2307;48.448;9.216;2023-06-10T00:38:16;95011.56;;;19.48;82.09
4590;BME280;2307;48.448;9.216;2023-06-10T00:40:42;95019.00;;;19.51;81.49
4590;BME280;2307;48.448;9.216;2023-06-10T00:43:10;95021.94;;;19.36;83.81
4590;BME280;2307;48.448;9.216;2023-06-10T00:45:36;95014.34;;;19.43;83.15
4590;BME280;2307;48.448;9.216;2023-06-10T00:48:03;95016.50;;;19.41;84.37
4590;BME280;2307;48.448;9.216;2023-06-10T00:50:29;95016.72;;;19.58;83.19
4590;BME280;2307;48.448;9.216;2023-06-10T00:52:57;95023.25;;;19.52;81.87
4590;BME280;2307;48.448;9.216;2023-06-10T00:55:24;95021.66;;;19.51;82.38
4590;BME280;2307;48.448;9.216;2023-06-10T00:57:52;95019.28;;;19.36;85.90
4590;BME280;2307;48.448;9.216;2023-06-10T01:00:20;95024.16;;;19.34;84.77
4590;BME280;2307;48.448;9.216;2023-06-10T01:02:47;95015.22;;;19.11;92.39
4590;BME280;2307;48.448;9.216;2023-06-10T01:05:14;95018.47;;;18.94;93.43
4590;BME280;2307;48.448;9.216;2023-06-10T01:07:42;95013.41;;;18.79;95.48
4590;BME280;2307;48.448;9.216;2023-06-10T01:10:15;95019.25;;;18.68;99.74
4590;BME280;2307;48.448;9.216;2023-06-10T01:12:46;95022.56;;;18.60;100.00
4590;BME280;2307;48.448;9.216;2023-06-10T01:15:17;95022.09;;;18.39;100.00
4590;BME280;2307;48.448;9.216;2023-06-10T01:17:57;95016.31;;;18.32;100.00
4590;BME280;2307;48.448;9.216;2023-06-10T01:20:24;95019.06;;;18.27;100.00
4590;BME280;2307;48.448;9.216;2023-06-10T01:22:53;95019.25;;;18.17;100.00
4590;BME280;2307;48.448;9.216;2023-06-10T01:25:19;95018.66;;;18.20;100.00
4590;BME280;2307;48.448;9.216;2023-06-10T01:27:53;95022.41;;;18.19;100.00
4590;BME280;2307;48.448;9.216;2023-06-10T01:30:33;95018.38;;;18.02;100.00
4590;BME280;2307;48.448;9.216;2023-06-10T01:33:03;95014.78;;;17.93;100.00
4590;BME280;2307;48.448;9.216;2023-06-10T01:35:31;95014.66;;;17.85;100.00
4590;BME280;2307;48.448;9.216;2023-06-10T01:37:59;95019.69;;;17.86;100.00
4590;BME280;2307;48.448;9.216;2023-06-10T01:40:27;95021.28;;;17.87;100.00
4590;BME280;2307;48.448;9.216;2023-06-10T01:42:54;95025.97;;;17.95;100.00
4590;BME280;2307;48.448;9.216;2023-06-10T01:45:20;95031.25;;;18.00;100.00
4590;BME280;2307;48.448;9.216;2023-06-10T01:47:47;95026.53;;;17.92;100.00
4590;BME280;2307;48.448;9.216;2023-06-10T01:50:13;95029.44;;;17.96;100.00
4590;BME280;2307;48.448;9.216;2023-06-10T01:52:40;95025.59;;;17.83;100.00
4590;BME280;2307;48.448;9.216;2023-06-10T01:55:08;95026.03;;;17.90;100.00
4590;BME280;2307;48.448;9.216;2023-06-10T01:57:34;95033.13;;;17.81;100.00
4590;BME280;2307;48.448;9.216;2023-06-10T02:00:00;95029.00;;;17.89;100.00
4590;BME280;2307;48.448;9.216;2023-06-10T02:02:28;95031.38;;;17.90;100.00
4590;BME280;2307;48.448;9.216;2023-06-10T02:04:54;95033.34;;;17.66;100.00
4590;BME280;2307;48.448;9.216;2023-06-10T02:07:21;95035.03;;;17.57;100.00
4590;BME280;2307;48.448;9.216;2023-06-10T02:09:47;95034.06;;;17.48;100.00
4590;BME280;2307;48.448;9.216;2023-06-10T02:12:15;95021.34;;;17.40;100.00
4590;BME280;2307;48.448;9.216;2023-06-10T02:14:41;95024.97;;;17.49;100.00
4590;BME280;2307;48.448;9.216;2023-06-10T02:17:07;95023.81;;;17.36;100.00
4590;BME280;2307;48.448;9.216;2023-06-10T02:19:37;95026.25;;;17.33;100.00
4590;BME280;2307;48.448;9.216;2023-06-10T02:22:07;95029.88;;;17.42;100.00
4590;BME280;2307;48.448;9.216;2023-06-10T02:24:33;95031.22;;;17.39;100.00
4590;BME280;2307;48.448;9.216;2023-06-10T02:27:00;95031.00;;;17.36;100.00
4590;BME280;2307;48.448;9.216;2023-06-10T02:29:28;95033.97;;;17.34;100.00
4590;BME280;2307;48.448;9.216;2023-06-10T02:31:54;95025.66;;;17.36;100.00
4590;BME280;2307;48.448;9.216;2023-06-10T02:34:21;95028.47;;;17.26;100.00
4590;BME280;2307;48.448;9.216;2023-06-10T02:36:47;95029.56;;;17.25;100.00
4590;BME280;2307;48.448;9.216;2023-06-10T02:39:16;95029.78;;;17.05;100.00
4590;BME280;2307;48.448;9.216;2023-06-10T02:41:42;95045.56;;;17.01;100.00
4590;BME280;2307;48.448;9.216;2023-06-10T02:44:08;95047.25;;;16.92;100.00
4590;BME280;2307;48.448;9.216;2023-06-10T02:46:36;95046.03;;;16.79;100.00
4590;BME280;2307;48.448;9.216;2023-06-10T02:49:03;95053.47;;;16.82;100.00
4590;BME280;2307;48.448;9.216;2023-06-10T02:51:29;95055.03;;;16.88;100.00
4590;BME280;2307;48.448;9.216;2023-06-10T02:53:55;95051.31;;;16.84;100.00
4590;BME280;2307;48.448;9.216;2023-06-10T02:56:22;95050.31;;;16.80;100.00
4590;BME280;2307;48.448;9.216;2023-06-10T02:58:48;95056.22;;;16.77;100.00
4590;BME280;2307;48.448;9.216;2023-06-10T03:01:16;95054.63;;;16.71;100.00
4590;BME280;2307;48.448;9.216;2023-06-10T03:03:45;95049.84;;;16.73;100.00
4590;BME280;2307;48.448;9.216;2023-06-10T03:06:11;95050.56;;;16.79;100.00
4590;BME280;2307;48.448;9.216;2023-06-10T03:08:38;95056.66;;;16.84;100.00
4590;BME280;2307;48.448;9.216;2023-06-10T03:11:04;95053.38;;;16.92;100.00
4590;BME280;2307;48.448;9.216;2023-06-10T03:13:31;95058.16;;;16.95;100.00
4590;BME280;2307;48.448;9.216;2023-06-10T03:15:57;95057.91;;;16.92;100.00
4590;BME280;2307;48.448;9.216;2023-06-10T03:18:25;95060.75;;;16.77;100.00
4590;BME280;2307;48.448;9.216;2023-06-10T03:20:53;95065.84;;;16.73;100.00
4590;BME280;2307;48.448;9.216;2023-06-10T03:23:20;95066.91;;;16.72;100.00
4590;BME280;2307;48.448;9.216;2023-06-10T03:25:46;95064.25;;;16.72;100.00
4590;BME280;2307;48.448;9.216;2023-06-10T03:28:12;95073.13;;;16.63;100.00
4590;BME280;2307;48.448;9.216;2023-06-10T03:30:39;95075.31;;;16.56;100.00
4590;BME280;2307;48.448;9.216;2023-06-10T03:33:05;95073.97;;;16.58;100.00
4590;BME280;2307;48.448;9.216;2023-06-10T03:35:31;95072.16;;;16.48;100.00
4590;BME280;2307;48.448;9.216;2023-06-10T03:38:01;95071.06;;;16.49;100.00
4590;BME280;2307;48.448;9.216;2023-06-10T03:40:27;95073.97;;;16.53;100.00
4590;BME280;2307;48.448;9.216;2023-06-10T03:42:55;95077.16;;;16.60;100.00
4590;BME280;2307;48.448;9.216;2023-06-10T03:45:22;95075.66;;;16.44;100.00
4590;BME280;2307;48.448;9.216;2023-06-10T03:47:49;95083.09;;;16.47;100.00
4590;BME280;2307;48.448;9.216;2023-06-10T03:50:15;95080.94;;;16.49;100.00
4590;BME280;2307;48.448;9.216;2023-06-10T03:52:42;95083.06;;;16.52;100.00
4590;BME280;2307;48.448;9.216;2023-06-10T03:55:11;95091.47;;;16.35;100.00
4590;BME280;2307;48.448;9.216;2023-06-10T03:57:38;95096.25;;;16.33;100.00
4590;BME280;2307;48.448;9.216;2023-06-10T04:00:05;95095.22;;;16.29;100.00
4590;BME280;2307;48.448;9.216;2023-06-10T04:02:36;95097.59;;;16.36;100.00
4590;BME280;2307;48.448;9.216;2023-06-10T04:05:02;95097.03;;;16.34;100.00
4590;BME280;2307;48.448;9.216;2023-06-10T04:07:29;95093.38;;;16.30;100.00
4590;BME280;2307;48.448;9.216;2023-06-10T04:09:56;95102.38;;;16.39;100.00
4590;BME280;2307;48.448;9.216;2023-06-10T04:12:24;95095.00;;;16.21;100.00
4590;BME280;2307;48.448;9.216;2023-06-10T04:14:50;95098.22;;;16.18;100.00
4590;BME280;2307;48.448;9.216;2023-06-10T04:17:17;95105.03;;;16.34;100.00
4590;BME280;2307;48.448;9.216;2023-06-10T04:19:43;95103.84;;;16.16;100.00
4590;BME280;2307;48.448;9.216;2023-06-10T04:22:10;95107.25;;;16.22;100.00
4590;BME280;2307;48.448;9.216;2023-06-10T04:24:37;95097.97;;;16.19;100.00
4590;BME280;2307;48.448;9.216;2023-06-10T04:27:03;95106.22;;;16.18;100.00
4590;BME280;2307;48.448;9.216;2023-06-10T04:29:31;95108.06;;;16.22;100.00
4590;BME280;2307;48.448;9.216;2023-06-10T04:31:58;95100.31;;;16.26;100.00
4590;BME280;2307;48.448;9.216;2023-06-10T04:34:25;95098.66;;;16.35;100.00
4590;BME280;2307;48.448;9.216;2023-06-10T04:36:51;95102.91;;;16.36;100.00
4590;BME280;2307;48.448;9.216;2023-06-10T04:39:18;95111.47;;;16.33;100.00
4590;BME280;2307;48.448;9.216;2023-06-10T04:41:45;95109.31;;;16.35;100.00
4590;BME280;2307;48.448;9.216;2023-06-10T04:44:11;95117.06;;;16.31;100.00
4590;BME280;2307;48.448;9.216;2023-06-10T04:46:40;95113.03;;;16.39;100.00
4590;BME280;2307;48.448;9.216;2023-06-10T04:49:06;95110.31;;;16.44;100.00
4590;BME280;2307;48.448;9.216;2023-06-10T04:51:33;95118.81;;;16.46;100.00
4590;BME280;2307;48.448;9.216;2023-06-10T04:53:59;95126.78;;;16.51;100.00
4590;BME280;2307;48.448;9.216;2023-06-10T04:56:28;95115.03;;;16.57;100.00
4590;BME280;2307;48.448;9.216;2023-06-10T04:58:55;95111.31;;;16.58;100.00
4590;BME280;2307;48.448;9.216;2023-06-10T05:01:21;95113.41;;;16.61;100.00
4590;BME280;2307;48.448;9.216;2023-06-10T05:03:49;95117.66;;;16.62;100.00
4590;BME280;2307;48.448;9.216;2023-06-10T05:06:16;95104.00;;;16.69;100.00
4590;BME280;2307;48.448;9.216;2023-06-10T05:08:42;95113.03;;;16.73;100.00
4590;BME280;2307;48.448;9.216;2023-06-10T05:11:08;95109.56;;;16.77;100.00
4590;BME280;2307;48.448;9.216;2023-06-10T05:13:35;95115.38;;;16.79;100.00
4590;BME280;2307;48.448;9.216;2023-06-10T05:16:01;95113.47;;;16.85;100.00
4590;BME280;2307;48.448;9.216;2023-06-10T05:18:27;95117.75;;;16.86;100.00
4590;BME280;2307;48.448;9.216;2023-06-10T05:20:55;95116.66;;;16.87;100.00
4590;BME280;2307;48.448;9.216;2023-06-10T05:23:22;95128.88;;;16.93;100.00
4590;BME280;2307;48.448;9.216;2023-06-10T05:25:48;95125.66;;;16.96;100.00
4590;BME280;2307;48.448;9.216;2023-06-10T05:28:15;95128.25;;;17.01;100.00
4590;BME280;2307;48.448;9.216;2023-06-10T05:30:41;95131.50;;;16.98;100.00
4590;BME280;2307;48.448;9.216;2023-06-10T05:33:08;95135.00;;;16.93;100.00
4590;BME280;2307;48.448;9.216;2023-06-10T05:35:34;95141.22;;;16.84;100.00
4590;BME280;2307;48.448;9.216;2023-06-10T05:38:02;95140.13;;;16.90;100.00
4590;BME280;2307;48.448;9.216;2023-06-10T05:40:28;95136.66;;;16.89;100.00
4590;BME280;2307;48.448;9.216;2023-06-10T05:42:55;95139.31;;;16.89;100.00
4590;BME280;2307;48.448;9.216;2023-06-10T05:45:21;95142.16;;;16.98;100.00
4590;BME280;2307;48.448;9.216;2023-06-10T05:47:47;95134.06;;;17.08;100.00
4590;BME280;2307;48.448;9.216;2023-06-10T05:50:14;95140.78;;;17.06;100.00
4590;BME280;2307;48.448;9.216;2023-06-10T05:52:41;95131.34;;;17.13;100.00
4590;BME280;2307;48.448;9.216;2023-06-10T05:55:09;95129.97;;;17.16;100.00
4590;BME280;2307;48.448;9.216;2023-06-10T05:57:36;95136.88;;;17.22;100.00
4590;BME280;2307;48.448;9.216;2023-06-10T06:00:03;95138.44;;;17.28;100.00
4590;BME280;2307;48.448;9.216;2023-06-10T06:02:29;95134.25;;;17.17;100.00
4590;BME280;2307;48.448;9.216;2023-06-10T06:04:55;95140.00;;;17.29;100.00
4590;BME280;2307;48.448;9.216;2023-06-10T06:07:22;95141.38;;;17.26;100.00
4590;BME280;2307;48.448;9.216;2023-06-10T06:09:48;95134.16;;;17.27;100.00
4590;BME280;2307;48.448;9.216;2023-06-10T06:12:16;95136.66;;;17.42;100.00
4590;BME280;2307;48.448;9.216;2023-06-10T06:14:43;95140.41;;;17.41;100.00
4590;BME280;2307;48.448;9.216;2023-06-10T06:17:10;95145.19;;;17.44;100.00
4590;BME280;2307;48.448;9.216;2023-06-10T06:19:36;95140.34;;;17.46;100.00
4590;BME280;2307;48.448;9.216;2023-06-10T06:22:03;95140.59;;;17.49;100.00
4590;BME280;2307;48.448;9.216;2023-06-10T06:24:29;95139.72;;;17.54;100.00
4590;BME280;2307;48.448;9.216;2023-06-10T06:26:56;95140.53;;;17.54;100.00
4590;BME280;2307;48.448;9.216;2023-06-10T06:29:23;95143.69;;;17.62;100.00
4590;BME280;2307;48.448;9.216;2023-06-10T06:31:50;95133.00;;;17.62;100.00
4590;BME280;2307;48.448;9.216;2023-06-10T06:34:16;95136.94;;;17.69;100.00
4590;BME280;2307;48.448;9.216;2023-06-10T06:36:42;95141.19;;;17.70;100.00
4590;BME280;2307;48.448;9.216;2023-06-10T06:39:09;95149.81;;;17.86;100.00
4590;BME280;2307;48.448;9.216;2023-06-10T06:41:35;95151.91;;;17.89;100.00
4590;BME280;2307;48.448;9.216;2023-06-10T06:44:01;95147.00;;;17.96;100.00
4590;BME280;2307;48.448;9.216;2023-06-10T06:46:29;95142.84;;;18.09;100.00
4590;BME280;2307;48.448;9.216;2023-06-10T06:48:56;95146.59;;;18.08;100.00
4590;BME280;2307;48.448;9.216;2023-06-10T06:51:22;95152.44;;;18.10;100.00
4590;BME280;2307;48.448;9.216;2023-06-10T06:53:48;95154.56;;;18.13;100.00
4590;BME280;2307;48.448;9.216;2023-06-10T06:56:16;95152.31;;;18.20;100.00
4590;BME280;2307;48.448;9.216;2023-06-10T06:58:42;95150.38;;;18.25;100.00
4590;BME280;2307;48.448;9.216;2023-06-10T07:01:09;95145.16;;;18.34;100.00
4590;BME280;2307;48.448;9.216;2023-06-10T07:03:36;95146.03;;;18.48;100.00
4590;BME280;2307;48.448;9.216;2023-06-10T07:06:03;95150.16;;;18.59;100.00
4590;BME280;2307;48.448;9.216;2023-06-10T07:08:29;95151.78;;;18.60;100.00
4590;BME280;2307;48.448;9.216;2023-06-10T07:10:56;95152.19;;;18.67;100.00
4590;BME280;2307;48.448;9.216;2023-06-10T07:13:22;95151.84;;;18.74;100.00
4590;BME280;2307;48.448;9.216;2023-06-10T07:15:48;95150.44;;;18.76;100.00
4590;BME280;2307;48.448;9.216;2023-06-10T07:18:15;95155.66;;;18.86;100.00
4590;BME280;2307;48.448;9.216;2023-06-10T07:20:42;95156.22;;;18.83;100.00
4590;BME280;2307;48.448;9.216;2023-06-10T07:23:09;95158.44;;;18.95;100.00
4590;BME280;2307;48.448;9.216;2023-06-10T07:25:35;95156.47;;;19.00;100.00
4590;BME280;2307;48.448;9.216;2023-06-10T07:28:02;95160.59;;;19.12;100.00
4590;BME280;2307;48.448;9.216;2023-06-10T07:33:15;95161.22;;;19.36;100.00
4590;BME280;2307;48.448;9.216;2023-06-10T07:35:42;95149.66;;;19.40;100.00
4590;BME280;2307;48.448;9.216;2023-06-10T07:38:09;95158.41;;;19.46;100.00
4590;BME280;2307;48.448;9.216;2023-06-10T07:40:36;95145.88;;;19.41;100.00
4590;BME280;2307;48.448;9.216;2023-06-10T07:43:03;95150.63;;;19.44;100.00
4590;BME280;2307;48.448;9.216;2023-06-10T07:45:30;95156.31;;;19.43;100.00
4590;BME280;2307;48.448;9.216;2023-06-10T07:47:56;95149.16;;;19.52;100.00
4590;BME280;2307;48.448;9.216;2023-06-10T07:50:23;95153.34;;;19.58;100.00
4590;BME280;2307;48.448;9.216;2023-06-10T07:52:51;95150.88;;;19.75;100.00
4590;BME280;2307;48.448;9.216;2023-06-10T07:55:17;95155.03;;;19.81;100.00
4590;BME280;2307;48.448;9.216;2023-06-10T07:57:43;95158.91;;;19.89;100.00
4590;BME280;2307;48.448;9.216;2023-06-10T08:00:10;95151.44;;;19.99;100.00
4590;BME280;2307;48.448;9.216;2023-06-10T08:02:37;95145.59;;;19.97;100.00
4590;BME280;2307;48.448;9.216;2023-06-10T08:05:04;95147.44;;;20.10;100.00
4590;BME280;2307;48.448;9.216;2023-06-10T08:07:30;95147.44;;;20.24;100.00
4590;BME280;2307;48.448;9.216;2023-06-10T08:09:58;95142.31;;;20.28;100.00
4590;BME280;2307;48.448;9.216;2023-06-10T08:12:24;95152.22;;;20.27;100.00
4590;BME280;2307;48.448;9.216;2023-06-10T08:14:51;95151.81;;;20.34;100.00
4590;BME280;2307;48.448;9.216;2023-06-10T08:17:17;95148.25;;;20.38;100.00
4590;BME280;2307;48.448;9.216;2023-06-10T08:19:44;95147.22;;;20.48;100.00
4590;BME280;2307;48.448;9.216;2023-06-10T08:22:10;95152.59;;;20.48;100.00
4590;BME280;2307;48.448;9.216;2023-06-10T08:24:36;95146.41;;;20.61;100.00
4590;BME280;2307;48.448;9.216;2023-06-10T08:27:04;95146.50;;;20.78;100.00
4590;BME280;2307;48.448;9.216;2023-06-10T08:29:31;95135.41;;;20.71;100.00
4590;BME280;2307;48.448;9.216;2023-06-10T08:31:58;95142.06;;;20.74;100.00
4590;BME280;2307;48.448;9.216;2023-06-10T08:34:24;95145.91;;;20.81;100.00
4590;BME280;2307;48.448;9.216;2023-06-10T08:36:51;95143.59;;;20.88;100.00
4590;BME280;2307;48.448;9.216;2023-06-10T08:39:20;95146.22;;;21.02;100.00
4590;BME280;2307;48.448;9.216;2023-06-10T08:41:48;95146.06;;;21.21;100.00
4590;BME280;2307;48.448;9.216;2023-06-10T08:44:21;95145.91;;;21.26;100.00
4590;BME280;2307;48.448;9.216;2023-06-10T08:46:48;95150.75;;;21.15;100.00
4590;BME280;2307;48.448;9.216;2023-06-10T08:49:17;95142.13;;;21.27;100.00
4590;BME280;2307;48.448;9.216;2023-06-10T08:51:45;95146.94;;;21.38;100.00
4590;BME280;2307;48.448;9.216;2023-06-10T08:54:15;95146.53;;;21.53;100.00
4590;BME280;2307;48.448;9.216;2023-06-10T08:56:43;95148.28;;;21.58;100.00
4590;BME280;2307;48.448;9.216;2023-06-10T08:59:11;95143.28;;;21.65;100.00
4590;BME280;2307;48.448;9.216;2023-06-10T09:01:39;95148.69;;;21.82;100.00
4590;BME280;2307;48.448;9.216;2023-06-10T09:04:06;95145.75;;;21.92;99.55
4590;BME280;2307;48.448;9.216;2023-06-10T09:06:32;95140.09;;;22.02;100.00
4590;BME280;2307;48.448;9.216;2023-06-10T09:08:59;95142.94;;;21.97;100.00
4590;BME280;2307;48.448;9.216;2023-06-10T09:11:25;95140.56;;;22.04;100.00
4590;BME280;2307;48.448;9.216;2023-06-10T09:13:52;95134.59;;;22.16;94.38
4590;BME280;2307;48.448;9.216;2023-06-10T09:16:18;95139.53;;;22.22;95.47
4590;BME280;2307;48.448;9.216;2023-06-10T09:18:46;95133.84;;;22.41;94.81
4590;BME280;2307;48.448;9.216;2023-06-10T09:21:12;95134.00;;;22.53;88.96
4590;BME280;2307;48.448;9.216;2023-06-10T09:23:39;95132.91;;;22.71;82.09
4590;BME280;2307;48.448;9.216;2023-06-10T09:26:08;95137.50;;;22.88;78.61
4590;BME280;2307;48.448;9.216;2023-06-10T09:28:35;95134.16;;;23.00;82.70
4590;BME280;2307;48.448;9.216;2023-06-10T09:31:02;95139.56;;;23.00;74.46
4590;BME280;2307;48.448;9.216;2023-06-10T09:33:29;95138.63;;;22.96;69.64
4590;BME280;2307;48.448;9.216;2023-06-10T09:35:57;95139.72;;;23.03;72.54
4590;BME280;2307;48.448;9.216;2023-06-10T09:38:29;95132.56;;;23.16;68.11
4590;BME280;2307;48.448;9.216;2023-06-10T09:40:55;95140.47;;;23.12;58.80
4590;BME280;2307;48.448;9.216;2023-06-10T09:43:22;95130.47;;;23.21;59.45
4590;BME280;2307;48.448;9.216;2023-06-10T09:45:48;95140.34;;;23.17;61.07
4590;BME280;2307;48.448;9.216;2023-06-10T09:48:18;95138.41;;;23.26;59.84
4590;BME280;2307;48.448;9.216;2023-06-10T09:50:44;95145.53;;;23.40;60.92
4590;BME280;2307;48.448;9.216;2023-06-10T09:53:13;95135.53;;;23.49;60.28
4590;BME280;2307;48.448;9.216;2023-06-10T09:55:40;95138.84;;;23.54;58.68
4590;BME280;2307;48.448;9.216;2023-06-10T09:58:07;95136.25;;;23.66;65.83
4590;BME280;2307;48.448;9.216;2023-06-10T10:00:33;95139.22;;;23.73;58.69
4590;BME280;2307;48.448;9.216;2023-06-10T10:03:00;95142.38;;;23.84;54.82
4590;BME280;2307;48.448;9.216;2023-06-10T10:05:27;95136.22;;;24.04;61.30
4590;BME280;2307;48.448;9.216;2023-06-10T10:07:54;95140.91;;;24.24;56.36
4590;BME280;2307;48.448;9.216;2023-06-10T10:10:23;95143.63;;;24.24;56.74
4590;BME280;2307;48.448;9.216;2023-06-10T10:12:51;95144.56;;;24.20;56.62
4590;BME280;2307;48.448;9.216;2023-06-10T10:15:18;95145.00;;;24.30;58.55
4590;BME280;2307;48.448;9.216;2023-06-10T10:17:46;95138.28;;;24.37;56.35
4590;BME280;2307;48.448;9.216;2023-06-10T10:20:16;95139.75;;;24.55;54.96
4590;BME280;2307;48.448;9.216;2023-06-10T10:22:43;95137.38;;;24.53;57.78
4590;BME280;2307;48.448;9.216;2023-06-10T10:31:08;95134.78;;;24.86;54.18
4590;BME280;2307;48.448;9.216;2023-06-10T10:33:40;95141.88;;;24.91;52.17
4590;BME280;2307;48.448;9.216;2023-06-10T10:36:08;95138.31;;;25.31;53.83
4590;BME280;2307;48.448;9.216;2023-06-10T10:41:21;95136.41;;;25.89;51.01
4590;BME280;2307;48.448;9.216;2023-06-10T10:43:49;95131.66;;;25.98;49.47
4590;BME280;2307;48.448;9.216;2023-06-10T10:46:19;95121.84;;;25.57;50.41
4590;BME280;2307;48.448;9.216;2023-06-10T10:48:49;95134.38;;;25.29;53.23
4590;BME280;2307;48.448;9.216;2023-06-10T10:51:17;95127.59;;;25.56;53.22
4590;BME280;2307;48.448;9.216;2023-06-10T10:56:29;95135.97;;;25.87;52.45
4590;BME280;2307;48.448;9.216;2023-06-10T10:59:01;95130.75;;;25.94;51.12
4590;BME280;2307;48.448;9.216;2023-06-10T11:01:34;95131.44;;;25.91;50.58
4590;BME280;2307;48.448;9.216;2023-06-10T11:10:05;95131.78;;;26.14;49.13
4590;BME280;2307;48.448;9.216;2023-06-10T11:12:41;95126.81;;;25.79;50.14
4590;BME280;2307;48.448;9.216;2023-06-10T11:15:08;95128.84;;;25.82;50.17
4590;BME280;2307;48.448;9.216;2023-06-10T11:17:36;95128.84;;;25.82;52.13
4590;BME280;2307;48.448;9.216;2023-06-10T11:23:05;95134.25;;;25.58;50.38
4590;BME280;2307;48.448;9.216;2023-06-10T11:25:38;95130.69;;;25.46;50.67
4590;BME280;2307;48.448;9.216;2023-06-10T11:28:08;95125.94;;;26.00;52.05
4590;BME280;2307;48.448;9.216;2023-06-10T11:30:43;95127.84;;;25.99;48.46
4590;BME280;2307;48.448;9.216;2023-06-10T11:33:11;95121.09;;;25.81;48.78
4590;BME280;2307;48.448;9.216;2023-06-10T11:35:40;95123.75;;;25.69;51.00
4590;BME280;2307;48.448;9.216;2023-06-10T11:38:07;95131.84;;;25.57;52.18
4590;BME280;2307;48.448;9.216;2023-06-10T11:40:33;95120.38;;;25.60;52.37
4590;BME280;2307;48.448;9.216;2023-06-10T11:45:30;95123.31;;;25.34;54.52
4590;BME280;2307;48.448;9.216;2023-06-10T11:47:57;95128.16;;;25.49;56.35
4590;BME280;2307;48.448;9.216;2023-06-10T11:50:29;95121.06;;;26.05;50.88
4590;BME280;2307;48.448;9.216;2023-06-10T11:52:55;95113.19;;;26.76;47.82
4590;BME280;2307;48.448;9.216;2023-06-10T11:55:23;95113.63;;;27.46;46.74
4590;BME280;2307;48.448;9.216;2023-06-10T11:57:49;95116.50;;;27.69;46.19
4590;BME280;2307;48.448;9.216;2023-06-10T12:00:22;95110.72;;;28.17;44.19
4590;BME280;2307;48.448;9.216;2023-06-10T12:02:54;95109.34;;;27.17;44.59
4590;BME280;2307;48.448;9.216;2023-06-10T12:05:22;95106.03;;;27.24;45.31
4590;BME280;2307;48.448;9.216;2023-06-10T12:07:51;95116.38;;;27.06;46.94
4590;BME280;2307;48.448;9.216;2023-06-10T12:10:31;95110.81;;;26.75;47.03
4590;BME280;2307;48.448;9.216;2023-06-10T12:12:58;95109.44;;;26.41;46.81
4590;BME280;2307;48.448;9.216;2023-06-10T12:15:24;95118.06;;;26.19;49.50
4590;BME280;2307;48.448;9.216;2023-06-10T12:17:53;95115.22;;;26.15;48.92
4590;BME280;2307;48.448;9.216;2023-06-10T12:20:26;95114.19;;;25.96;50.68
4590;BME280;2307;48.448;9.216;2023-06-10T12:22:55;95113.16;;;25.88;50.34
4590;BME280;2307;48.448;9.216;2023-06-10T12:25:24;95115.31;;;25.82;51.67
4590;BME280;2307;48.448;9.216;2023-06-10T12:27:51;95115.19;;;25.55;52.45
4590;BME280;2307;48.448;9.216;2023-06-10T12:30:18;95108.09;;;25.62;55.33
4590;BME280;2307;48.448;9.216;2023-06-10T12:32:46;95113.66;;;25.78;55.17
4590;BME280;2307;48.448;9.216;2023-06-10T12:35:14;95117.13;;;25.78;56.34
4590;BME280;2307;48.448;9.216;2023-06-10T12:37:41;95113.84;;;25.85;56.82
4590;BME280;2307;48.448;9.216;2023-06-10T12:40:09;95109.69;;;26.12;55.79
4590;BME280;2307;48.448;9.216;2023-06-10T12:42:36;95113.97;;;26.77;52.70
4590;BME280;2307;48.448;9.216;2023-06-10T12:45:03;95113.69;;;27.50;49.32
4590;BME280;2307;48.448;9.216;2023-06-10T12:47:32;95114.66;;;27.88;45.14
4590;BME280;2307;48.448;9.216;2023-06-10T12:50:00;95113.16;;;27.60;46.35
4590;BME280;2307;48.448;9.216;2023-06-10T12:52:26;95108.25;;;27.50;47.11
4590;BME280;2307;48.448;9.216;2023-06-10T12:54:53;95111.09;;;27.41;46.72
4590;BME280;2307;48.448;9.216;2023-06-10T12:57:21;95113.25;;;27.48;46.22
4590;BME280;2307;48.448;9.216;2023-06-10T12:59:47;95104.97;;;26.73;44.97
4590;BME280;2307;48.448;9.216;2023-06-10T13:02:17;95097.03;;;26.92;45.75
4590;BME280;2307;48.448;9.216;2023-06-10T13:04:44;95097.25;;;27.30;48.02
4590;BME280;2307;48.448;9.216;2023-06-10T13:07:11;95092.78;;;27.66;42.56
4590;BME280;2307;48.448;9.216;2023-06-10T13:09:37;95099.63;;;28.41;45.22
4590;BME280;2307;48.448;9.216;2023-06-10T13:12:05;95093.41;;;28.95;42.57
4590;BME280;2307;48.448;9.216;2023-06-10T13:14:32;95100.84;;;29.36;44.13
4590;BME280;2307;48.448;9.216;2023-06-10T13:16:59;95096.91;;;29.79;39.83
4590;BME280;2307;48.448;9.216;2023-06-10T13:19:25;95088.97;;;29.90;39.96
4590;BME280;2307;48.448;9.216;2023-06-10T13:21:52;95085.50;;;29.93;38.11
4590;BME280;2307;48.448;9.216;2023-06-10T13:24:18;95084.38;;;30.46;39.49
4590;BME280;2307;48.448;9.216;2023-06-10T13:26:45;95085.97;;;30.25;39.29
4590;BME280;2307;48.448;9.216;2023-06-10T13:29:13;95083.22;;;29.76;37.59
4590;BME280;2307;48.448;9.216;2023-06-10T13:31:41;95078.22;;;30.00;36.46
4590;BME280;2307;48.448;9.216;2023-06-10T13:34:08;95077.06;;;29.56;36.34
4590;BME280;2307;48.448;9.216;2023-06-10T13:36:34;95085.25;;;29.33;38.45
4590;BME280;2307;48.448;9.216;2023-06-10T13:39:00;95086.09;;;28.80;40.13
4590;BME280;2307;48.448;9.216;2023-06-10T13:41:27;95078.84;;;28.49;40.63